sensor_id;sensor_type;location;lat;lon;timestamp;temperature;humidity
18335;DHT22;9293;49.524;10.964;2023-12-20T00:01:25;5.90;99.90
18335;DHT22;9293;49.524;10.964;2023-12-20T00:03:53;5.90;99.90
18335;DHT22;9293;49.524;10.964;2023-12-20T00:06:22;5.90;99.90
18335;DHT22;9293;49.524;10.964;2023-12-20T00:08:50;5.90;99.90
18335;DHT22;9293;49.524;10.964;2023-12-20T00:11:23;5.80;99.90
18335;DHT22;9293;49.524;10.964;2023-12-20T00:13:52;5.90;99.90
18335;DHT22;9293;49.524;10.964;2023-12-20T00:16:20;5.80;99.90
18335;DHT22;9293;49.524;10.964;2023-12-20T00:18:48;5.80;99.90
18335;DHT22;9293;49.524;10.964;2023-12-20T00:21:17;5.80;99.90
18335;DHT22;9293;49.524;10.964;2023-12-20T00:23:45;5.80;99.90
18335;DHT22;9293;49.524;10.964;2023-12-20T00:26:13;5.80;99.90
18335;DHT22;9293;49.524;10.964;2023-12-20T00:28:41;5.80;99.90
18335;DHT22;9293;49.524;10.964;2023-12-20T00:31:11;5.80;99.90
18335;DHT22;9293;49.524;10.964;2023-12-20T00:33:39;5.80;99.90
18335;DHT22;9293;49.524;10.964;2023-12-20T00:36:11;5.80;99.90
18335;DHT22;9293;49.524;10.964;2023-12-20T00:38:40;5.80;99.90
18335;DHT22;9293;49.524;10.964;2023-12-20T00:41:08;5.80;99.90
18335;DHT22;9293;49.524;10.964;2023-12-20T00:43:36;5.80;99.90
18335;DHT22;9293;49.524;10.964;2023-12-20T00:46:04;5.80;99.90
18335;DHT22;9293;49.524;10.964;2023-12-20T00:48:33;5.90;99.90
18335;DHT22;9293;49.524;10.964;2023-12-20T00:51:01;5.90;99.90
18335;DHT22;9293;49.524;10.964;2023-12-20T00:53:29;5.90;99.90
18335;DHT22;9293;49.524;10.964;2023-12-20T00:55:57;5.80;99.90
18335;DHT22;9293;49.524;10.964;2023-12-20T00:58:26;5.90;99.90
18335;DHT22;9293;49.524;10.964;2023-12-20T01:00:56;5.90;99.90
18335;DHT22;9293;49.524;10.964;2023-12-20T01:03:24;5.90;99.90
18335;DHT22;9293;49.524;10.964;2023-12-20T01:05:52;5.90;99.90
18335;DHT22;9293;49.524;10.964;2023-12-20T01:08:21;5.90;99.90
18335;DHT22;9293;49.524;10.964;2023-12-20T01:10:49;5.80;99.90
18335;DHT22;9293;49.524;10.964;2023-12-20T01:13:17;5.80;99.90
18335;DHT22;9293;49.524;10.964;2023-12-20T01:15:46;5.80;99.90
18335;DHT22;9293;49.524;10.964;2023-12-20T01:18:15;5.80;99.90
18335;DHT22;9293;49.524;10.964;2023-12-20T01:20:43;5.80;99.90
18335;DHT22;9293;49.524;10.964;2023-12-20T01:23:11;5.80;99.90
18335;DHT22;9293;49.524;10.964;2023-12-20T01:25:40;5.70;99.90
18335;DHT22;9293;49.524;10.964;2023-12-20T01:28:08;5.70;99.90
18335;DHT22;9293;49.524;10.964;2023-12-20T01:30:36;5.70;99.90
18335;DHT22;9293;49.524;10.964;2023-12-20T01:33:05;5.70;99.90
18335;DHT22;9293;49.524;10.964;2023-12-20T01:35:33;5.70;99.90
18335;DHT22;9293;49.524;10.964;2023-12-20T01:38:02;5.70;99.90
18335;DHT22;9293;49.524;10.964;2023-12-20T01:40:30;5.70;99.90
18335;DHT22;9293;49.524;10.964;2023-12-20T01:43:04;5.60;99.90
18335;DHT22;9293;49.524;10.964;2023-12-20T01:45:33;5.60;99.90
18335;DHT22;9293;49.524;10.964;2023-12-20T01:48:05;5.60;99.90
18335;DHT22;9293;49.524;10.964;2023-12-20T01:50:36;5.60;99.90
18335;DHT22;9293;49.524;10.964;2023-12-20T01:53:07;5.60;99.90
18335;DHT22;9293;49.524;10.964;2023-12-20T01:55:39;5.60;99.90
18335;DHT22;9293;49.524;10.964;2023-12-20T01:58:08;5.60;99.90
18335;DHT22;9293;49.524;10.964;2023-12-20T02:00:37;5.50;99.90
18335;DHT22;9293;49.524;10.964;2023-12-20T02:03:06;5.50;99.90
18335;DHT22;9293;49.524;10.964;2023-12-20T02:05:35;5.50;99.90
18335;DHT22;9293;49.524;10.964;2023-12-20T02:08:04;5.50;99.90
18335;DHT22;9293;49.524;10.964;2023-12-20T02:10:35;5.40;99.90
18335;DHT22;9293;49.524;10.964;2023-12-20T02:13:03;5.40;99.90
18335;DHT22;9293;49.524;10.964;2023-12-20T02:15:32;5.40;99.90
18335;DHT22;9293;49.524;10.964;2023-12-20T02:18:00;5.40;99.90
18335;DHT22;9293;49.524;10.964;2023-12-20T02:20:29;5.40;99.90
18335;DHT22;9293;49.524;10.964;2023-12-20T02:22:57;5.30;99.90
18335;DHT22;9293;49.524;10.964;2023-12-20T02:25:25;5.30;99.90
18335;DHT22;9293;49.524;10.964;2023-12-20T02:27:54;5.30;99.90
18335;DHT22;9293;49.524;10.964;2023-12-20T02:30:23;5.30;99.90
18335;DHT22;9293;49.524;10.964;2023-12-20T02:32:51;5.20;99.90
18335;DHT22;9293;49.524;10.964;2023-12-20T02:35:20;5.20;99.90
18335;DHT22;9293;49.524;10.964;2023-12-20T02:37:48;5.20;99.90
18335;DHT22;9293;49.524;10.964;2023-12-20T02:40:17;5.20;99.90
18335;DHT22;9293;49.524;10.964;2023-12-20T02:42:45;5.10;99.90
18335;DHT22;9293;49.524;10.964;2023-12-20T02:45:14;5.10;99.90
18335;DHT22;9293;49.524;10.964;2023-12-20T02:47:42;5.10;99.90
18335;DHT22;9293;49.524;10.964;2023-12-20T02:50:11;5.10;99.90
18335;DHT22;9293;49.524;10.964;2023-12-20T02:52:39;5.10;99.90
18335;DHT22;9293;49.524;10.964;2023-12-20T02:55:07;5.00;99.90
18335;DHT22;9293;49.524;10.964;2023-12-20T02:57:36;5.00;99.90
18335;DHT22;9293;49.524;10.964;2023-12-20T03:00:04;5.00;99.90
18335;DHT22;9293;49.524;10.964;2023-12-20T03:02:33;5.00;99.90
18335;DHT22;9293;49.524;10.964;2023-12-20T03:05:02;4.90;99.90
18335;DHT22;9293;49.524;10.964;2023-12-20T03:07:30;4.90;99.90
18335;DHT22;9293;49.524;10.964;2023-12-20T03:09:58;4.90;99.90
18335;DHT22;9293;49.524;10.964;2023-12-20T03:12:45;4.80;99.90
18335;DHT22;9293;49.524;10.964;2023-12-20T03:15:13;4.80;99.90
18335;DHT22;9293;49.524;10.964;2023-12-20T03:17:42;4.80;99.90
18335;DHT22;9293;49.524;10.964;2023-12-20T03:20:11;4.80;99.90
18335;DHT22;9293;49.524;10.964;2023-12-20T03:22:40;4.80;99.90
18335;DHT22;9293;49.524;10.964;2023-12-20T03:25:08;4.70;99.90
18335;DHT22;9293;49.524;10.964;2023-12-20T03:27:39;4.70;99.90
18335;DHT22;9293;49.524;10.964;2023-12-20T03:30:08;4.80;99.90
18335;DHT22;9293;49.524;10.964;2023-12-20T03:32:38;4.80;99.90
18335;DHT22;9293;49.524;10.964;2023-12-20T03:35:06;4.80;99.90
18335;DHT22;9293;49.524;10.964;2023-12-20T03:37:35;4.80;99.90
18335;DHT22;9293;49.524;10.964;2023-12-20T03:40:03;4.70;99.90
18335;DHT22;9293;49.524;10.964;2023-12-20T03:42:32;4.70;99.90
18335;DHT22;9293;49.524;10.964;2023-12-20T03:45:00;4.70;99.90
18335;DHT22;9293;49.524;10.964;2023-12-20T03:47:28;4.70;99.90
18335;DHT22;9293;49.524;10.964;2023-12-20T03:49:57;4.70;99.90
18335;DHT22;9293;49.524;10.964;2023-12-20T03:52:25;4.70;99.90
18335;DHT22;9293;49.524;10.964;2023-12-20T03:54:53;4.70;99.90
18335;DHT22;9293;49.524;10.964;2023-12-20T03:57:22;4.70;99.90
18335;DHT22;9293;49.524;10.964;2023-12-20T03:59:50;4.70;99.90
18335;DHT22;9293;49.524;10.964;2023-12-20T04:02:18;4.70;99.90
18335;DHT22;9293;49.524;10.964;2023-12-20T04:04:46;4.60;99.90
18335;DHT22;9293;49.524;10.964;2023-12-20T04:07:15;4.60;99.90
18335;DHT22;9293;49.524;10.964;2023-12-20T04:09:43;4.70;99.90
18335;DHT22;9293;49.524;10.964;2023-12-20T04:12:11;4.60;99.90
18335;DHT22;9293;49.524;10.964;2023-12-20T04:14:40;4.60;99.90
18335;DHT22;9293;49.524;10.964;2023-12-20T04:17:08;4.60;99.90
18335;DHT22;9293;49.524;10.964;2023-12-20T04:19:36;4.60;99.90
18335;DHT22;9293;49.524;10.964;2023-12-20T04:22:05;4.60;99.90
18335;DHT22;9293;49.524;10.964;2023-12-20T04:24:33;4.60;99.90
18335;DHT22;9293;49.524;10.964;2023-12-20T04:27:02;4.60;99.90
18335;DHT22;9293;49.524;10.964;2023-12-20T04:29:30;4.60;99.90
18335;DHT22;9293;49.524;10.964;2023-12-20T04:31:58;4.60;99.90
18335;DHT22;9293;49.524;10.964;2023-12-20T04:34:26;4.60;99.90
18335;DHT22;9293;49.524;10.964;2023-12-20T04:36:55;4.60;99.90
18335;DHT22;9293;49.524;10.964;2023-12-20T04:39:23;4.60;99.90
18335;DHT22;9293;49.524;10.964;2023-12-20T04:41:51;4.60;99.90
18335;DHT22;9293;49.524;10.964;2023-12-20T04:44:20;4.60;99.90
18335;DHT22;9293;49.524;10.964;2023-12-20T04:46:48;4.60;99.90
18335;DHT22;9293;49.524;10.964;2023-12-20T04:49:16;4.60;99.90
18335;DHT22;9293;49.524;10.964;2023-12-20T04:51:45;4.60;99.90
18335;DHT22;9293;49.524;10.964;2023-12-20T04:54:13;4.60;99.90
18335;DHT22;9293;49.524;10.964;2023-12-20T04:56:44;4.60;99.90
18335;DHT22;9293;49.524;10.964;2023-12-20T04:59:16;4.60;99.90
18335;DHT22;9293;49.524;10.964;2023-12-20T05:01:44;4.50;99.90
18335;DHT22;9293;49.524;10.964;2023-12-20T05:04:12;4.50;99.90
18335;DHT22;9293;49.524;10.964;2023-12-20T05:06:40;4.60;99.90
18335;DHT22;9293;49.524;10.964;2023-12-20T05:09:09;4.60;99.90
18335;DHT22;9293;49.524;10.964;2023-12-20T05:11:37;4.60;99.90
18335;DHT22;9293;49.524;10.964;2023-12-20T05:14:06;4.50;99.90
18335;DHT22;9293;49.524;10.964;2023-12-20T05:16:35;4.50;99.90
18335;DHT22;9293;49.524;10.964;2023-12-20T05:19:03;4.50;99.90
18335;DHT22;9293;49.524;10.964;2023-12-20T05:21:34;4.50;99.90
18335;DHT22;9293;49.524;10.964;2023-12-20T05:24:04;4.50;99.90
18335;DHT22;9293;49.524;10.964;2023-12-20T05:26:32;4.50;99.90
18335;DHT22;9293;49.524;10.964;2023-12-20T05:29:00;4.50;99.90
18335;DHT22;9293;49.524;10.964;2023-12-20T05:31:29;4.60;99.90
18335;DHT22;9293;49.524;10.964;2023-12-20T05:33:57;4.50;99.90
18335;DHT22;9293;49.524;10.964;2023-12-20T05:36:26;4.50;99.90
18335;DHT22;9293;49.524;10.964;2023-12-20T05:38:54;4.50;99.90
18335;DHT22;9293;49.524;10.964;2023-12-20T05:41:23;4.50;99.90
18335;DHT22;9293;49.524;10.964;2023-12-20T05:43:53;4.50;99.90
18335;DHT22;9293;49.524;10.964;2023-12-20T05:46:22;4.50;99.90
18335;DHT22;9293;49.524;10.964;2023-12-20T05:48:55;4.50;99.90
18335;DHT22;9293;49.524;10.964;2023-12-20T05:51:24;4.50;99.90
18335;DHT22;9293;49.524;10.964;2023-12-20T05:53:53;4.50;99.90
18335;DHT22;9293;49.524;10.964;2023-12-20T05:56:21;4.50;99.90
18335;DHT22;9293;49.524;10.964;2023-12-20T05:58:50;4.50;99.90
18335;DHT22;9293;49.524;10.964;2023-12-20T06:01:18;4.50;99.90
18335;DHT22;9293;49.524;10.964;2023-12-20T06:03:47;4.50;99.90
18335;DHT22;9293;49.524;10.964;2023-12-20T06:06:15;4.50;99.90
18335;DHT22;9293;49.524;10.964;2023-12-20T06:08:43;4.50;99.90
18335;DHT22;9293;49.524;10.964;2023-12-20T06:11:12;4.50;99.90
18335;DHT22;9293;49.524;10.964;2023-12-20T06:13:41;4.50;99.90
18335;DHT22;9293;49.524;10.964;2023-12-20T06:16:09;4.50;99.90
18335;DHT22;9293;49.524;10.964;2023-12-20T06:18:38;4.50;99.90
18335;DHT22;9293;49.524;10.964;2023-12-20T06:21:06;4.50;99.90
18335;DHT22;9293;49.524;10.964;2023-12-20T06:23:35;4.50;99.90
18335;DHT22;9293;49.524;10.964;2023-12-20T06:26:04;4.50;99.90
18335;DHT22;9293;49.524;10.964;2023-12-20T06:28:32;4.50;99.90
18335;DHT22;9293;49.524;10.964;2023-12-20T06:31:10;4.50;99.90
18335;DHT22;9293;49.524;10.964;2023-12-20T06:33:39;4.60;99.90
18335;DHT22;9293;49.524;10.964;2023-12-20T06:36:12;4.60;99.90
18335;DHT22;9293;49.524;10.964;2023-12-20T06:38:41;4.70;99.90
18335;DHT22;9293;49.524;10.964;2023-12-20T06:41:13;4.60;99.90
18335;DHT22;9293;49.524;10.964;2023-12-20T06:43:42;4.60;99.90
18335;DHT22;9293;49.524;10.964;2023-12-20T06:46:16;4.60;99.90
18335;DHT22;9293;49.524;10.964;2023-12-20T06:48:45;4.70;99.90
18335;DHT22;9293;49.524;10.964;2023-12-20T06:51:16;4.70;99.90
18335;DHT22;9293;49.524;10.964;2023-12-20T06:53:45;4.70;99.90
18335;DHT22;9293;49.524;10.964;2023-12-20T06:56:13;4.70;99.90
18335;DHT22;9293;49.524;10.964;2023-12-20T06:58:45;4.70;99.90
18335;DHT22;9293;49.524;10.964;2023-12-20T07:01:15;4.70;99.90
18335;DHT22;9293;49.524;10.964;2023-12-20T07:03:43;4.70;99.90
18335;DHT22;9293;49.524;10.964;2023-12-20T07:06:11;4.70;99.90
18335;DHT22;9293;49.524;10.964;2023-12-20T07:08:40;4.80;99.90
18335;DHT22;9293;49.524;10.964;2023-12-20T07:11:08;4.80;99.90
18335;DHT22;9293;49.524;10.964;2023-12-20T07:13:37;4.80;99.90
18335;DHT22;9293;49.524;10.964;2023-12-20T07:16:05;4.80;99.90
18335;DHT22;9293;49.524;10.964;2023-12-20T07:18:34;4.80;99.90
18335;DHT22;9293;49.524;10.964;2023-12-20T07:21:02;4.80;99.90
18335;DHT22;9293;49.524;10.964;2023-12-20T07:23:31;4.90;99.90
18335;DHT22;9293;49.524;10.964;2023-12-20T07:25:59;4.90;99.90
18335;DHT22;9293;49.524;10.964;2023-12-20T07:28:27;4.90;99.90
18335;DHT22;9293;49.524;10.964;2023-12-20T07:30:56;4.90;99.90
18335;DHT22;9293;49.524;10.964;2023-12-20T07:33:24;4.90;99.90
18335;DHT22;9293;49.524;10.964;2023-12-20T07:35:53;4.90;99.90
18335;DHT22;9293;49.524;10.964;2023-12-20T07:38:21;4.90;99.90
18335;DHT22;9293;49.524;10.964;2023-12-20T07:40:49;4.90;99.90
18335;DHT22;9293;49.524;10.964;2023-12-20T07:43:18;4.90;99.90
18335;DHT22;9293;49.524;10.964;2023-12-20T07:45:46;4.90;99.90
18335;DHT22;9293;49.524;10.964;2023-12-20T07:48:17;4.90;99.90
18335;DHT22;9293;49.524;10.964;2023-12-20T07:50:45;5.00;99.90
18335;DHT22;9293;49.524;10.964;2023-12-20T07:53:14;5.00;99.90
18335;DHT22;9293;49.524;10.964;2023-12-20T07:55:42;5.00;99.90
18335;DHT22;9293;49.524;10.964;2023-12-20T07:58:11;5.00;99.90
18335;DHT22;9293;49.524;10.964;2023-12-20T08:00:39;5.10;99.90
18335;DHT22;9293;49.524;10.964;2023-12-20T08:03:07;5.10;99.90
18335;DHT22;9293;49.524;10.964;2023-12-20T08:05:36;5.10;99.90
18335;DHT22;9293;49.524;10.964;2023-12-20T08:08:05;5.10;99.90
18335;DHT22;9293;49.524;10.964;2023-12-20T08:10:34;5.10;99.90
18335;DHT22;9293;49.524;10.964;2023-12-20T08:13:02;5.10;99.90
18335;DHT22;9293;49.524;10.964;2023-12-20T08:15:30;5.10;99.90
18335;DHT22;9293;49.524;10.964;2023-12-20T08:17:59;5.20;99.90
18335;DHT22;9293;49.524;10.964;2023-12-20T08:20:27;5.20;99.90
18335;DHT22;9293;49.524;10.964;2023-12-20T08:23:06;5.20;99.90
18335;DHT22;9293;49.524;10.964;2023-12-20T08:25:34;5.20;99.90
18335;DHT22;9293;49.524;10.964;2023-12-20T08:28:03;5.20;99.90
18335;DHT22;9293;49.524;10.964;2023-12-20T08:30:32;5.20;99.90
18335;DHT22;9293;49.524;10.964;2023-12-20T08:33:01;5.20;99.90
18335;DHT22;9293;49.524;10.964;2023-12-20T08:35:29;5.20;99.90
18335;DHT22;9293;49.524;10.964;2023-12-20T08:37:58;5.20;99.90
18335;DHT22;9293;49.524;10.964;2023-12-20T08:40:27;5.30;99.90
18335;DHT22;9293;49.524;10.964;2023-12-20T08:42:55;5.30;99.90
18335;DHT22;9293;49.524;10.964;2023-12-20T08:45:24;5.30;99.90
18335;DHT22;9293;49.524;10.964;2023-12-20T08:47:52;5.30;99.90
18335;DHT22;9293;49.524;10.964;2023-12-20T08:50:23;5.30;99.90
18335;DHT22;9293;49.524;10.964;2023-12-20T08:52:51;5.40;99.90
18335;DHT22;9293;49.524;10.964;2023-12-20T08:55:19;5.40;99.90
18335;DHT22;9293;49.524;10.964;2023-12-20T08:57:48;5.40;99.90
18335;DHT22;9293;49.524;10.964;2023-12-20T09:00:17;5.40;99.90
18335;DHT22;9293;49.524;10.964;2023-12-20T09:02:48;5.30;99.90
18335;DHT22;9293;49.524;10.964;2023-12-20T09:05:16;5.30;99.90
18335;DHT22;9293;49.524;10.964;2023-12-20T09:07:44;5.30;99.90
18335;DHT22;9293;49.524;10.964;2023-12-20T09:10:13;5.30;99.90
18335;DHT22;9293;49.524;10.964;2023-12-20T09:12:47;5.30;99.90
18335;DHT22;9293;49.524;10.964;2023-12-20T09:15:18;5.30;99.90
18335;DHT22;9293;49.524;10.964;2023-12-20T09:17:48;5.40;99.90
18335;DHT22;9293;49.524;10.964;2023-12-20T09:20:18;5.40;99.90
18335;DHT22;9293;49.524;10.964;2023-12-20T09:22:46;5.40;99.90
18335;DHT22;9293;49.524;10.964;2023-12-20T09:25:14;5.40;99.90
18335;DHT22;9293;49.524;10.964;2023-12-20T09:27:45;5.40;99.90
18335;DHT22;9293;49.524;10.964;2023-12-20T09:30:14;5.40;99.90
18335;DHT22;9293;49.524;10.964;2023-12-20T09:32:54;5.40;99.90
18335;DHT22;9293;49.524;10.964;2023-12-20T09:35:22;5.50;99.90
18335;DHT22;9293;49.524;10.964;2023-12-20T09:37:51;5.50;99.90
18335;DHT22;9293;49.524;10.964;2023-12-20T09:40:19;5.60;99.90
18335;DHT22;9293;49.524;10.964;2023-12-20T09:42:58;5.60;99.90
18335;DHT22;9293;49.524;10.964;2023-12-20T09:45:30;5.60;99.90
18335;DHT22;9293;49.524;10.964;2023-12-20T09:47:59;5.70;99.90
18335;DHT22;9293;49.524;10.964;2023-12-20T09:50:28;5.70;99.90
18335;DHT22;9293;49.524;10.964;2023-12-20T09:53:01;5.70;99.90
18335;DHT22;9293;49.524;10.964;2023-12-20T09:55:31;5.90;99.90
18335;DHT22;9293;49.524;10.964;2023-12-20T09:58:00;6.00;99.90
18335;DHT22;9293;49.524;10.964;2023-12-20T10:00:28;6.00;99.90
18335;DHT22;9293;49.524;10.964;2023-12-20T10:02:58;6.10;99.90
18335;DHT22;9293;49.524;10.964;2023-12-20T10:05:31;6.20;99.90
18335;DHT22;9293;49.524;10.964;2023-12-20T10:08:02;6.20;99.90
18335;DHT22;9293;49.524;10.964;2023-12-20T10:10:31;6.20;99.90
18335;DHT22;9293;49.524;10.964;2023-12-20T10:13:12;6.20;99.90
18335;DHT22;9293;49.524;10.964;2023-12-20T10:15:41;6.20;99.90
18335;DHT22;9293;49.524;10.964;2023-12-20T10:18:11;6.20;99.90
18335;DHT22;9293;49.524;10.964;2023-12-20T10:20:40;6.20;99.90
18335;DHT22;9293;49.524;10.964;2023-12-20T10:23:10;6.30;99.90
18335;DHT22;9293;49.524;10.964;2023-12-20T10:25:38;6.20;99.90
18335;DHT22;9293;49.524;10.964;2023-12-20T10:28:15;6.10;99.90
18335;DHT22;9293;49.524;10.964;2023-12-20T10:30:47;6.10;99.90
18335;DHT22;9293;49.524;10.964;2023-12-20T10:33:24;6.10;99.90
18335;DHT22;9293;49.524;10.964;2023-12-20T10:35:54;6.00;99.90
18335;DHT22;9293;49.524;10.964;2023-12-20T10:38:23;6.00;99.90
18335;DHT22;9293;49.524;10.964;2023-12-20T10:40:58;5.90;99.90
18335;DHT22;9293;49.524;10.964;2023-12-20T10:43:33;5.90;99.90
18335;DHT22;9293;49.524;10.964;2023-12-20T10:46:03;5.90;99.90
18335;DHT22;9293;49.524;10.964;2023-12-20T10:48:32;5.90;99.90
18335;DHT22;9293;49.524;10.964;2023-12-20T10:51:01;5.90;99.90
18335;DHT22;9293;49.524;10.964;2023-12-20T10:53:30;5.90;99.90
18335;DHT22;9293;49.524;10.964;2023-12-20T10:56:00;5.90;99.90
18335;DHT22;9293;49.524;10.964;2023-12-20T10:58:32;6.00;99.90
18335;DHT22;9293;49.524;10.964;2023-12-20T11:01:02;6.00;99.90
18335;DHT22;9293;49.524;10.964;2023-12-20T11:03:35;6.00;99.90
18335;DHT22;9293;49.524;10.964;2023-12-20T11:08:59;6.10;99.90
18335;DHT22;9293;49.524;10.964;2023-12-20T11:17:11;6.20;99.90
18335;DHT22;9293;49.524;10.964;2023-12-20T11:22:26;6.20;99.90
18335;DHT22;9293;49.524;10.964;2023-12-20T11:27:41;6.10;99.90
18335;DHT22;9293;49.524;10.964;2023-12-20T11:30:14;6.10;99.90
18335;DHT22;9293;49.524;10.964;2023-12-20T11:32:45;6.10;99.90
18335;DHT22;9293;49.524;10.964;2023-12-20T11:37:42;6.20;99.90
18335;DHT22;9293;49.524;10.964;2023-12-20T11:40:14;6.30;99.90
18335;DHT22;9293;49.524;10.964;2023-12-20T11:42:45;6.30;99.90
18335;DHT22;9293;49.524;10.964;2023-12-20T11:45:15;6.20;99.90
18335;DHT22;9293;49.524;10.964;2023-12-20T11:47:46;6.10;99.90
18335;DHT22;9293;49.524;10.964;2023-12-20T11:50:16;6.10;99.90
18335;DHT22;9293;49.524;10.964;2023-12-20T11:52:44;6.10;99.90
18335;DHT22;9293;49.524;10.964;2023-12-20T11:55:13;6.10;99.90
18335;DHT22;9293;49.524;10.964;2023-12-20T11:57:42;6.10;99.90
18335;DHT22;9293;49.524;10.964;2023-12-20T12:00:12;6.20;99.90
18335;DHT22;9293;49.524;10.964;2023-12-20T12:02:41;6.20;99.90
18335;DHT22;9293;49.524;10.964;2023-12-20T12:05:13;6.20;99.90
18335;DHT22;9293;49.524;10.964;2023-12-20T12:07:41;6.20;99.90
18335;DHT22;9293;49.524;10.964;2023-12-20T12:10:10;6.30;99.90
18335;DHT22;9293;49.524;10.964;2023-12-20T12:12:38;6.30;99.90
18335;DHT22;9293;49.524;10.964;2023-12-20T12:15:07;6.40;99.90
18335;DHT22;9293;49.524;10.964;2023-12-20T12:17:36;6.40;99.90
18335;DHT22;9293;49.524;10.964;2023-12-20T12:20:05;6.30;99.90
18335;DHT22;9293;49.524;10.964;2023-12-20T12:22:34;6.20;99.90
18335;DHT22;9293;49.524;10.964;2023-12-20T12:25:10;6.30;99.90
18335;DHT22;9293;49.524;10.964;2023-12-20T12:27:40;6.20;99.90
18335;DHT22;9293;49.524;10.964;2023-12-20T12:30:10;6.20;99.90
18335;DHT22;9293;49.524;10.964;2023-12-20T12:32:40;6.20;99.90
18335;DHT22;9293;49.524;10.964;2023-12-20T12:35:09;6.10;99.90
18335;DHT22;9293;49.524;10.964;2023-12-20T12:37:39;6.10;99.90
18335;DHT22;9293;49.524;10.964;2023-12-20T12:40:12;6.10;99.90
18335;DHT22;9293;49.524;10.964;2023-12-20T12:42:43;6.20;99.90
18335;DHT22;9293;49.524;10.964;2023-12-20T12:45:11;6.10;99.90
18335;DHT22;9293;49.524;10.964;2023-12-20T12:47:40;6.10;99.90
18335;DHT22;9293;49.524;10.964;2023-12-20T12:50:09;6.20;99.90
18335;DHT22;9293;49.524;10.964;2023-12-20T12:52:37;6.20;99.90
18335;DHT22;9293;49.524;10.964;2023-12-20T12:55:06;6.20;99.90
18335;DHT22;9293;49.524;10.964;2023-12-20T12:57:34;6.20;99.90
18335;DHT22;9293;49.524;10.964;2023-12-20T13:00:03;6.30;99.90
18335;DHT22;9293;49.524;10.964;2023-12-20T13:02:31;6.30;99.90
18335;DHT22;9293;49.524;10.964;2023-12-20T13:05:00;6.40;99.90
18335;DHT22;9293;49.524;10.964;2023-12-20T13:07:30;6.40;99.90
18335;DHT22;9293;49.524;10.964;2023-12-20T13:09:58;6.50;99.90
18335;DHT22;9293;49.524;10.964;2023-12-20T13:12:26;6.50;99.90
18335;DHT22;9293;49.524;10.964;2023-12-20T13:14:54;6.50;99.90
18335;DHT22;9293;49.524;10.964;2023-12-20T13:17:23;6.40;99.90
18335;DHT22;9293;49.524;10.964;2023-12-20T13:19:51;6.30;99.90
18335;DHT22;9293;49.524;10.964;2023-12-20T13:22:20;6.30;99.90
18335;DHT22;9293;49.524;10.964;2023-12-20T13:24:48;6.30;99.90
18335;DHT22;9293;49.524;10.964;2023-12-20T13:27:16;6.30;99.90
18335;DHT22;9293;49.524;10.964;2023-12-20T13:29:45;6.20;99.90
18335;DHT22;9293;49.524;10.964;2023-12-20T13:32:13;6.10;99.90
18335;DHT22;9293;49.524;10.964;2023-12-20T13:34:41;6.10;99.90
18335;DHT22;9293;49.524;10.964;2023-12-20T13:37:10;6.10;99.90
18335;DHT22;9293;49.524;10.964;2023-12-20T13:39:39;6.10;99.90
18335;DHT22;9293;49.524;10.964;2023-12-20T13:42:08;6.10;99.90
18335;DHT22;9293;49.524;10.964;2023-12-20T13:44:36;6.10;99.90
18335;DHT22;9293;49.524;10.964;2023-12-20T13:47:04;6.00;99.90
18335;DHT22;9293;49.524;10.964;2023-12-20T13:49:32;6.00;99.90
18335;DHT22;9293;49.524;10.964;2023-12-20T13:52:04;6.00;99.90
18335;DHT22;9293;49.524;10.964;2023-12-20T13:54:36;6.00;99.90
18335;DHT22;9293;49.524;10.964;2023-12-20T13:57:04;5.90;99.90
18335;DHT22;9293;49.524;10.964;2023-12-20T13:59:47;5.90;99.90
18335;DHT22;9293;49.524;10.964;2023-12-20T14:02:16;5.90;99.90
18335;DHT22;9293;49.524;10.964;2023-12-20T14:04:44;5.80;99.90
18335;DHT22;9293;49.524;10.964;2023-12-20T14:07:12;5.80;99.90
18335;DHT22;9293;49.524;10.964;2023-12-20T14:09:41;5.80;99.90
18335;DHT22;9293;49.524;10.964;2023-12-20T14:12:14;5.70;99.90
18335;DHT22;9293;49.524;10.964;2023-12-20T14:14:42;5.70;99.90
18335;DHT22;9293;49.524;10.964;2023-12-20T14:17:12;5.70;99.90
18335;DHT22;9293;49.524;10.964;2023-12-20T14:19:41;5.70;99.90
18335;DHT22;9293;49.524;10.964;2023-12-20T14:22:09;5.60;99.90
18335;DHT22;9293;49.524;10.964;2023-12-20T14:24:37;5.60;99.90
18335;DHT22;9293;49.524;10.964;2023-12-20T14:27:06;5.60;99.90
18335;DHT22;9293;49.524;10.964;2023-12-20T14:29:34;5.60;99.90
18335;DHT22;9293;49.524;10.964;2023-12-20T14:32:03;5.60;99.90
18335;DHT22;9293;49.524;10.964;2023-12-20T14:34:33;5.60;99.90
18335;DHT22;9293;49.524;10.964;2023-12-20T14:37:01;5.50;99.90
18335;DHT22;9293;49.524;10.964;2023-12-20T14:39:29;5.50;99.90
18335;DHT22;9293;49.524;10.964;2023-12-20T14:41:57;5.50;99.90
18335;DHT22;9293;49.524;10.964;2023-12-20T14:44:26;5.40;99.90
18335;DHT22;9293;49.524;10.964;2023-12-20T14:46:54;5.40;99.90
18335;DHT22;9293;49.524;10.964;2023-12-20T14:49:22;5.30;99.90
18335;DHT22;9293;49.524;10.964;2023-12-20T14:51:50;5.30;99.90
18335;DHT22;9293;49.524;10.964;2023-12-20T14:54:19;5.20;99.90
18335;DHT22;9293;49.524;10.964;2023-12-20T14:56:48;5.20;99.90
18335;DHT22;9293;49.524;10.964;2023-12-20T14:59:17;5.10;99.90
18335;DHT22;9293;49.524;10.964;2023-12-20T15:01:45;5.10;99.90
18335;DHT22;9293;49.524;10.964;2023-12-20T15:04:13;5.10;99.90
18335;DHT22;9293;49.524;10.964;2023-12-20T15:06:42;5.10;99.90
18335;DHT22;9293;49.524;10.964;2023-12-20T15:09:15;5.20;99.90
18335;DHT22;9293;49.524;10.964;2023-12-20T15:11:47;5.10;99.90
18335;DHT22;9293;49.524;10.964;2023-12-20T15:14:15;5.10;99.90
18335;DHT22;9293;49.524;10.964;2023-12-20T15:16:48;5.20;99.90
18335;DHT22;9293;49.524;10.964;2023-12-20T15:19:16;5.20;99.90
18335;DHT22;9293;49.524;10.964;2023-12-20T15:21:44;5.20;99.90
18335;DHT22;9293;49.524;10.964;2023-12-20T15:24:14;5.10;99.90
18335;DHT22;9293;49.524;10.964;2023-12-20T15:26:47;5.10;99.90
18335;DHT22;9293;49.524;10.964;2023-12-20T15:29:15;5.10;99.90
18335;DHT22;9293;49.524;10.964;2023-12-20T15:31:45;5.10;99.90
18335;DHT22;9293;49.524;10.964;2023-12-20T15:34:14;5.10;99.90
18335;DHT22;9293;49.524;10.964;2023-12-20T15:36:43;5.10;99.90
18335;DHT22;9293;49.524;10.964;2023-12-20T15:39:11;5.10;99.90
18335;DHT22;9293;49.524;10.964;2023-12-20T15:41:42;5.20;99.90
18335;DHT22;9293;49.524;10.964;2023-12-20T15:44:11;5.10;99.90
18335;DHT22;9293;49.524;10.964;2023-12-20T15:46:39;5.20;99.90
18335;DHT22;9293;49.524;10.964;2023-12-20T15:49:07;5.10;99.90
18335;DHT22;9293;49.524;10.964;2023-12-20T15:51:36;5.10;99.90
18335;DHT22;9293;49.524;10.964;2023-12-20T15:54:05;5.20;99.90
18335;DHT22;9293;49.524;10.964;2023-12-20T15:56:36;5.10;99.90
18335;DHT22;9293;49.524;10.964;2023-12-20T15:59:04;5.20;99.90
18335;DHT22;9293;49.524;10.964;2023-12-20T16:01:33;5.20;99.90
18335;DHT22;9293;49.524;10.964;2023-12-20T16:04:01;5.10;99.90
18335;DHT22;9293;49.524;10.964;2023-12-20T16:06:30;5.20;99.90
18335;DHT22;9293;49.524;10.964;2023-12-20T16:08:59;5.20;99.90
18335;DHT22;9293;49.524;10.964;2023-12-20T16:11:28;5.10;99.90
18335;DHT22;9293;49.524;10.964;2023-12-20T16:13:59;5.30;99.90